sensor_id;sensor_type;location;lat;lon;timestamp;temperature;humidity
59973;DHT22;55298;-36.624;-64.282;2023-03-21T00:01:27;23.90;66.90
59973;DHT22;55298;-36.624;-64.282;2023-03-21T00:03:55;23.80;66.00
59973;DHT22;55298;-36.624;-64.282;2023-03-21T00:06:23;23.70;65.30
59973;DHT22;55298;-36.624;-64.282;2023-03-21T00:08:51;23.70;64.40
59973;DHT22;55298;-36.624;-64.282;2023-03-21T00:11:19;23.60;64.10
59973;DHT22;55298;-36.624;-64.282;2023-03-21T00:13:47;23.50;63.30
59973;DHT22;55298;-36.624;-64.282;2023-03-21T00:16:17;23.50;62.00
59973;DHT22;55298;-36.624;-64.282;2023-03-21T00:18:48;23.50;60.20
59973;DHT22;55298;-36.624;-64.282;2023-03-21T00:21:20;23.40;60.10
59973;DHT22;55298;-36.624;-64.282;2023-03-21T00:23:47;23.30;59.90
59973;DHT22;55298;-36.624;-64.282;2023-03-21T00:26:15;23.30;59.80
59973;DHT22;55298;-36.624;-64.282;2023-03-21T00:28:44;23.20;59.30
59973;DHT22;55298;-36.624;-64.282;2023-03-21T00:31:12;23.20;59.40
59973;DHT22;55298;-36.624;-64.282;2023-03-21T00:33:40;23.10;59.10
59973;DHT22;55298;-36.624;-64.282;2023-03-21T00:36:12;23.10;58.60
59973;DHT22;55298;-36.624;-64.282;2023-03-21T00:38:41;23.00;58.00
59973;DHT22;55298;-36.624;-64.282;2023-03-21T00:41:11;23.00;59.00
59973;DHT22;55298;-36.624;-64.282;2023-03-21T00:43:40;23.00;58.40
59973;DHT22;55298;-36.624;-64.282;2023-03-21T00:46:08;22.90;57.40
59973;DHT22;55298;-36.624;-64.282;2023-03-21T00:48:36;22.90;56.90
59973;DHT22;55298;-36.624;-64.282;2023-03-21T00:51:12;22.90;57.20
59973;DHT22;55298;-36.624;-64.282;2023-03-21T00:53:41;22.80;56.30
59973;DHT22;55298;-36.624;-64.282;2023-03-21T00:56:12;22.70;56.40
59973;DHT22;55298;-36.624;-64.282;2023-03-21T00:58:40;22.70;57.00
59973;DHT22;55298;-36.624;-64.282;2023-03-21T01:01:07;22.60;56.30
59973;DHT22;55298;-36.624;-64.282;2023-03-21T01:03:36;22.60;56.60
59973;DHT22;55298;-36.624;-64.282;2023-03-21T01:06:10;22.50;56.70
59973;DHT22;55298;-36.624;-64.282;2023-03-21T01:08:41;22.50;57.10
59973;DHT22;55298;-36.624;-64.282;2023-03-21T01:11:12;22.40;57.00
59973;DHT22;55298;-36.624;-64.282;2023-03-21T01:13:41;22.40;57.20
59973;DHT22;55298;-36.624;-64.282;2023-03-21T01:16:09;22.30;57.50
59973;DHT22;55298;-36.624;-64.282;2023-03-21T01:18:39;22.20;57.40
59973;DHT22;55298;-36.624;-64.282;2023-03-21T01:21:11;22.20;57.60
59973;DHT22;55298;-36.624;-64.282;2023-03-21T01:23:41;22.20;58.20
59973;DHT22;55298;-36.624;-64.282;2023-03-21T01:26:11;22.20;58.80
59973;DHT22;55298;-36.624;-64.282;2023-03-21T01:28:40;22.20;59.20
59973;DHT22;55298;-36.624;-64.282;2023-03-21T01:31:10;22.20;59.90
59973;DHT22;55298;-36.624;-64.282;2023-03-21T01:33:39;22.20;60.60
59973;DHT22;55298;-36.624;-64.282;2023-03-21T01:36:17;22.20;61.20
59973;DHT22;55298;-36.624;-64.282;2023-03-21T01:38:46;22.10;61.80
59973;DHT22;55298;-36.624;-64.282;2023-03-21T01:41:34;22.10;61.80
59973;DHT22;55298;-36.624;-64.282;2023-03-21T01:44:02;22.10;62.60
59973;DHT22;55298;-36.624;-64.282;2023-03-21T01:46:39;22.00;62.70
59973;DHT22;55298;-36.624;-64.282;2023-03-21T01:49:18;22.00;63.10
59973;DHT22;55298;-36.624;-64.282;2023-03-21T01:51:55;22.00;63.90
59973;DHT22;55298;-36.624;-64.282;2023-03-21T01:54:28;21.90;62.90
59973;DHT22;55298;-36.624;-64.282;2023-03-21T01:57:01;21.90;63.20
59973;DHT22;55298;-36.624;-64.282;2023-03-21T01:59:36;21.80;63.00
59973;DHT22;55298;-36.624;-64.282;2023-03-21T02:02:07;21.80;63.00
59973;DHT22;55298;-36.624;-64.282;2023-03-21T02:04:38;21.80;64.30
59973;DHT22;55298;-36.624;-64.282;2023-03-21T02:07:11;21.80;64.10
59973;DHT22;55298;-36.624;-64.282;2023-03-21T02:09:41;21.70;64.40
59973;DHT22;55298;-36.624;-64.282;2023-03-21T02:12:11;21.70;65.00
59973;DHT22;55298;-36.624;-64.282;2023-03-21T02:14:39;21.60;65.20
59973;DHT22;55298;-36.624;-64.282;2023-03-21T02:17:22;21.60;65.20
59973;DHT22;55298;-36.624;-64.282;2023-03-21T02:28:58;21.30;66.90
59973;DHT22;55298;-36.624;-64.282;2023-03-21T02:31:40;21.20;68.20
59973;DHT22;55298;-36.624;-64.282;2023-03-21T02:34:22;21.20;67.70
59973;DHT22;55298;-36.624;-64.282;2023-03-21T02:37:07;21.10;68.40
59973;DHT22;55298;-36.624;-64.282;2023-03-21T02:39:50;21.00;68.60
59973;DHT22;55298;-36.624;-64.282;2023-03-21T02:42:42;20.90;68.50
59973;DHT22;55298;-36.624;-64.282;2023-03-21T02:45:21;20.80;68.60
59973;DHT22;55298;-36.624;-64.282;2023-03-21T02:47:54;20.80;71.00
59973;DHT22;55298;-36.624;-64.282;2023-03-21T02:53:06;20.70;71.70
59973;DHT22;55298;-36.624;-64.282;2023-03-21T02:55:35;20.60;71.30
59973;DHT22;55298;-36.624;-64.282;2023-03-21T02:58:07;20.60;73.10
59973;DHT22;55298;-36.624;-64.282;2023-03-21T03:00:36;20.50;71.90
59973;DHT22;55298;-36.624;-64.282;2023-03-21T03:03:05;20.40;72.10
59973;DHT22;55298;-36.624;-64.282;2023-03-21T03:05:36;20.40;72.10
59973;DHT22;55298;-36.624;-64.282;2023-03-21T03:08:20;20.40;72.60
59973;DHT22;55298;-36.624;-64.282;2023-03-21T03:14:24;20.30;75.40
59973;DHT22;55298;-36.624;-64.282;2023-03-21T03:17:02;20.20;77.00
59973;DHT22;55298;-36.624;-64.282;2023-03-21T03:19:48;20.20;78.20
59973;DHT22;55298;-36.624;-64.282;2023-03-21T03:22:30;20.20;79.00
59973;DHT22;55298;-36.624;-64.282;2023-03-21T03:25:12;20.20;78.00
59973;DHT22;55298;-36.624;-64.282;2023-03-21T03:27:43;20.20;78.00
59973;DHT22;55298;-36.624;-64.282;2023-03-21T03:30:12;20.20;78.30
59973;DHT22;55298;-36.624;-64.282;2023-03-21T03:32:47;20.20;78.00
59973;DHT22;55298;-36.624;-64.282;2023-03-21T03:35:18;20.20;76.40
59973;DHT22;55298;-36.624;-64.282;2023-03-21T03:37:52;20.10;76.10
59973;DHT22;55298;-36.624;-64.282;2023-03-21T03:40:26;20.10;77.20
59973;DHT22;55298;-36.624;-64.282;2023-03-21T03:45:43;20.10;76.80
59973;DHT22;55298;-36.624;-64.282;2023-03-21T03:48:23;20.10;76.20
59973;DHT22;55298;-36.624;-64.282;2023-03-21T03:51:00;20.10;76.50
59973;DHT22;55298;-36.624;-64.282;2023-03-21T03:53:37;20.10;76.30
59973;DHT22;55298;-36.624;-64.282;2023-03-21T03:56:09;20.10;76.60
59973;DHT22;55298;-36.624;-64.282;2023-03-21T03:58:37;20.10;75.70
59973;DHT22;55298;-36.624;-64.282;2023-03-21T04:01:06;20.20;75.30
59973;DHT22;55298;-36.624;-64.282;2023-03-21T04:03:37;20.30;75.10
59973;DHT22;55298;-36.624;-64.282;2023-03-21T04:06:07;20.30;74.60
59973;DHT22;55298;-36.624;-64.282;2023-03-21T04:08:35;20.40;74.20
59973;DHT22;55298;-36.624;-64.282;2023-03-21T04:11:03;20.50;73.60
59973;DHT22;55298;-36.624;-64.282;2023-03-21T04:13:32;20.50;73.60
59973;DHT22;55298;-36.624;-64.282;2023-03-21T04:16:00;20.40;73.60
59973;DHT22;55298;-36.624;-64.282;2023-03-21T04:18:28;20.40;73.30
59973;DHT22;55298;-36.624;-64.282;2023-03-21T04:20:56;20.40;74.30
59973;DHT22;55298;-36.624;-64.282;2023-03-21T04:23:24;20.30;74.10
59973;DHT22;55298;-36.624;-64.282;2023-03-21T04:25:52;20.20;73.80
59973;DHT22;55298;-36.624;-64.282;2023-03-21T04:28:20;20.10;74.50
59973;DHT22;55298;-36.624;-64.282;2023-03-21T04:30:49;20.10;74.00
59973;DHT22;55298;-36.624;-64.282;2023-03-21T04:33:16;20.00;73.60
59973;DHT22;55298;-36.624;-64.282;2023-03-21T04:35:45;20.00;74.20
59973;DHT22;55298;-36.624;-64.282;2023-03-21T04:38:13;19.90;74.50
59973;DHT22;55298;-36.624;-64.282;2023-03-21T04:40:41;19.90;74.20
59973;DHT22;55298;-36.624;-64.282;2023-03-21T04:43:08;19.80;74.70
59973;DHT22;55298;-36.624;-64.282;2023-03-21T04:45:36;19.70;75.30
59973;DHT22;55298;-36.624;-64.282;2023-03-21T04:48:04;19.60;75.40
59973;DHT22;55298;-36.624;-64.282;2023-03-21T04:50:32;19.60;75.50
59973;DHT22;55298;-36.624;-64.282;2023-03-21T04:53:00;19.50;75.40
59973;DHT22;55298;-36.624;-64.282;2023-03-21T04:55:29;19.50;75.90
59973;DHT22;55298;-36.624;-64.282;2023-03-21T04:57:58;19.40;75.20
59973;DHT22;55298;-36.624;-64.282;2023-03-21T05:00:27;19.40;75.70
59973;DHT22;55298;-36.624;-64.282;2023-03-21T05:02:56;19.30;75.40
59973;DHT22;55298;-36.624;-64.282;2023-03-21T05:05:24;19.30;75.00
59973;DHT22;55298;-36.624;-64.282;2023-03-21T05:07:54;19.30;75.70
59973;DHT22;55298;-36.624;-64.282;2023-03-21T05:10:21;19.30;76.20
59973;DHT22;55298;-36.624;-64.282;2023-03-21T05:12:49;19.20;76.30
59973;DHT22;55298;-36.624;-64.282;2023-03-21T05:15:17;19.20;76.40
59973;DHT22;55298;-36.624;-64.282;2023-03-21T05:17:45;19.20;75.90
59973;DHT22;55298;-36.624;-64.282;2023-03-21T05:20:14;19.10;76.00
59973;DHT22;55298;-36.624;-64.282;2023-03-21T05:22:43;19.10;75.70
59973;DHT22;55298;-36.624;-64.282;2023-03-21T05:25:12;19.10;75.50
59973;DHT22;55298;-36.624;-64.282;2023-03-21T05:27:40;19.20;75.20
59973;DHT22;55298;-36.624;-64.282;2023-03-21T05:30:14;19.10;75.80
59973;DHT22;55298;-36.624;-64.282;2023-03-21T05:32:43;19.10;76.30
59973;DHT22;55298;-36.624;-64.282;2023-03-21T05:35:11;19.10;77.10
59973;DHT22;55298;-36.624;-64.282;2023-03-21T05:37:39;19.10;78.20
59973;DHT22;55298;-36.624;-64.282;2023-03-21T05:40:07;19.00;77.70
59973;DHT22;55298;-36.624;-64.282;2023-03-21T05:42:35;18.90;77.90
59973;DHT22;55298;-36.624;-64.282;2023-03-21T05:45:03;19.00;77.10
59973;DHT22;55298;-36.624;-64.282;2023-03-21T05:47:31;18.80;77.00
59973;DHT22;55298;-36.624;-64.282;2023-03-21T05:49:59;18.80;76.70
59973;DHT22;55298;-36.624;-64.282;2023-03-21T05:52:27;18.90;77.40
59973;DHT22;55298;-36.624;-64.282;2023-03-21T05:54:55;18.80;77.10
59973;DHT22;55298;-36.624;-64.282;2023-03-21T05:57:23;18.80;77.00
59973;DHT22;55298;-36.624;-64.282;2023-03-21T05:59:52;18.70;77.60
59973;DHT22;55298;-36.624;-64.282;2023-03-21T06:02:20;18.70;77.70
59973;DHT22;55298;-36.624;-64.282;2023-03-21T06:04:47;18.70;77.70
59973;DHT22;55298;-36.624;-64.282;2023-03-21T06:07:15;18.70;77.00
59973;DHT22;55298;-36.624;-64.282;2023-03-21T06:09:42;18.60;77.60
59973;DHT22;55298;-36.624;-64.282;2023-03-21T06:12:11;18.60;77.30
59973;DHT22;55298;-36.624;-64.282;2023-03-21T06:14:39;18.60;77.50
59973;DHT22;55298;-36.624;-64.282;2023-03-21T06:17:07;18.60;77.00
59973;DHT22;55298;-36.624;-64.282;2023-03-21T06:19:34;18.50;77.20
59973;DHT22;55298;-36.624;-64.282;2023-03-21T06:22:02;18.50;77.10
59973;DHT22;55298;-36.624;-64.282;2023-03-21T06:24:30;18.50;77.90
59973;DHT22;55298;-36.624;-64.282;2023-03-21T06:26:58;18.40;79.00
59973;DHT22;55298;-36.624;-64.282;2023-03-21T06:29:26;18.50;79.00
59973;DHT22;55298;-36.624;-64.282;2023-03-21T06:31:53;18.50;79.40
59973;DHT22;55298;-36.624;-64.282;2023-03-21T06:34:21;18.50;79.30
59973;DHT22;55298;-36.624;-64.282;2023-03-21T06:36:49;18.50;80.30
59973;DHT22;55298;-36.624;-64.282;2023-03-21T06:39:17;18.50;79.50
59973;DHT22;55298;-36.624;-64.282;2023-03-21T06:41:45;18.40;79.50
59973;DHT22;55298;-36.624;-64.282;2023-03-21T06:44:13;18.40;80.40
59973;DHT22;55298;-36.624;-64.282;2023-03-21T06:46:41;18.40;81.30
59973;DHT22;55298;-36.624;-64.282;2023-03-21T06:49:09;18.30;81.00
59973;DHT22;55298;-36.624;-64.282;2023-03-21T06:51:37;18.40;81.50
59973;DHT22;55298;-36.624;-64.282;2023-03-21T06:54:04;18.30;81.10
59973;DHT22;55298;-36.624;-64.282;2023-03-21T06:56:32;18.30;81.30
59973;DHT22;55298;-36.624;-64.282;2023-03-21T06:59:00;18.20;81.00
59973;DHT22;55298;-36.624;-64.282;2023-03-21T07:01:28;18.20;81.60
59973;DHT22;55298;-36.624;-64.282;2023-03-21T07:03:57;18.20;82.90
59973;DHT22;55298;-36.624;-64.282;2023-03-21T07:06:25;18.10;82.50
59973;DHT22;55298;-36.624;-64.282;2023-03-21T07:08:54;18.10;82.80
59973;DHT22;55298;-36.624;-64.282;2023-03-21T07:11:22;18.00;84.70
59973;DHT22;55298;-36.624;-64.282;2023-03-21T07:13:51;18.00;84.00
59973;DHT22;55298;-36.624;-64.282;2023-03-21T07:16:19;18.00;84.20
59973;DHT22;55298;-36.624;-64.282;2023-03-21T07:18:47;17.90;84.40
59973;DHT22;55298;-36.624;-64.282;2023-03-21T07:21:15;17.90;84.00
59973;DHT22;55298;-36.624;-64.282;2023-03-21T07:23:43;17.90;83.70
59973;DHT22;55298;-36.624;-64.282;2023-03-21T07:26:11;17.80;82.80
59973;DHT22;55298;-36.624;-64.282;2023-03-21T07:28:39;17.80;83.20
59973;DHT22;55298;-36.624;-64.282;2023-03-21T07:31:06;17.80;82.80
59973;DHT22;55298;-36.624;-64.282;2023-03-21T07:33:35;17.70;82.70
59973;DHT22;55298;-36.624;-64.282;2023-03-21T07:36:02;17.70;82.50
59973;DHT22;55298;-36.624;-64.282;2023-03-21T07:38:30;17.70;82.20
59973;DHT22;55298;-36.624;-64.282;2023-03-21T07:40:59;17.70;82.20
59973;DHT22;55298;-36.624;-64.282;2023-03-21T07:43:27;17.70;83.50
59973;DHT22;55298;-36.624;-64.282;2023-03-21T07:45:57;17.70;83.90
59973;DHT22;55298;-36.624;-64.282;2023-03-21T07:48:25;17.70;83.80
59973;DHT22;55298;-36.624;-64.282;2023-03-21T07:50:53;17.80;83.60
59973;DHT22;55298;-36.624;-64.282;2023-03-21T07:53:21;17.70;83.20
59973;DHT22;55298;-36.624;-64.282;2023-03-21T07:55:51;17.80;83.30
59973;DHT22;55298;-36.624;-64.282;2023-03-21T07:58:22;17.80;83.30
59973;DHT22;55298;-36.624;-64.282;2023-03-21T08:00:51;17.80;83.60
59973;DHT22;55298;-36.624;-64.282;2023-03-21T08:03:19;17.80;83.80
59973;DHT22;55298;-36.624;-64.282;2023-03-21T08:05:47;17.70;83.70
59973;DHT22;55298;-36.624;-64.282;2023-03-21T08:08:14;17.70;83.60
59973;DHT22;55298;-36.624;-64.282;2023-03-21T08:10:43;17.70;83.70
59973;DHT22;55298;-36.624;-64.282;2023-03-21T08:13:11;17.70;83.90
59973;DHT22;55298;-36.624;-64.282;2023-03-21T08:15:39;17.70;83.90
59973;DHT22;55298;-36.624;-64.282;2023-03-21T08:18:08;17.70;84.60
59973;DHT22;55298;-36.624;-64.282;2023-03-21T08:20:38;17.70;84.30
59973;DHT22;55298;-36.624;-64.282;2023-03-21T08:23:06;17.60;85.10
59973;DHT22;55298;-36.624;-64.282;2023-03-21T08:25:34;17.60;85.60
59973;DHT22;55298;-36.624;-64.282;2023-03-21T08:28:03;17.60;86.40
59973;DHT22;55298;-36.624;-64.282;2023-03-21T08:30:31;17.50;86.00
59973;DHT22;55298;-36.624;-64.282;2023-03-21T08:32:59;17.50;86.30
59973;DHT22;55298;-36.624;-64.282;2023-03-21T08:35:28;17.40;86.70
59973;DHT22;55298;-36.624;-64.282;2023-03-21T08:37:57;17.40;87.30
59973;DHT22;55298;-36.624;-64.282;2023-03-21T08:40:25;17.40;87.70
59973;DHT22;55298;-36.624;-64.282;2023-03-21T08:42:53;17.30;88.40
59973;DHT22;55298;-36.624;-64.282;2023-03-21T08:45:21;17.30;89.30
59973;DHT22;55298;-36.624;-64.282;2023-03-21T08:47:49;17.20;89.60
59973;DHT22;55298;-36.624;-64.282;2023-03-21T08:50:20;17.10;90.10
59973;DHT22;55298;-36.624;-64.282;2023-03-21T08:52:48;17.10;90.30
59973;DHT22;55298;-36.624;-64.282;2023-03-21T08:55:17;17.10;90.40
59973;DHT22;55298;-36.624;-64.282;2023-03-21T08:57:45;17.00;90.60
59973;DHT22;55298;-36.624;-64.282;2023-03-21T09:00:15;17.00;90.70
59973;DHT22;55298;-36.624;-64.282;2023-03-21T09:02:45;17.00;90.70
59973;DHT22;55298;-36.624;-64.282;2023-03-21T09:05:14;17.00;90.70
59973;DHT22;55298;-36.624;-64.282;2023-03-21T09:07:43;17.00;90.80
59973;DHT22;55298;-36.624;-64.282;2023-03-21T09:10:13;17.00;90.80
59973;DHT22;55298;-36.624;-64.282;2023-03-21T09:12:41;17.00;90.80
59973;DHT22;55298;-36.624;-64.282;2023-03-21T09:15:10;17.00;90.80
59973;DHT22;55298;-36.624;-64.282;2023-03-21T09:17:40;16.90;91.10
59973;DHT22;55298;-36.624;-64.282;2023-03-21T09:20:12;16.90;91.20
59973;DHT22;55298;-36.624;-64.282;2023-03-21T09:22:51;16.90;91.10
59973;DHT22;55298;-36.624;-64.282;2023-03-21T09:25:19;16.90;90.70
59973;DHT22;55298;-36.624;-64.282;2023-03-21T09:27:47;16.80;90.90
59973;DHT22;55298;-36.624;-64.282;2023-03-21T09:30:18;16.80;91.30
59973;DHT22;55298;-36.624;-64.282;2023-03-21T09:32:48;16.80;91.40
59973;DHT22;55298;-36.624;-64.282;2023-03-21T09:35:16;16.70;91.70
59973;DHT22;55298;-36.624;-64.282;2023-03-21T09:37:46;16.70;92.00
59973;DHT22;55298;-36.624;-64.282;2023-03-21T09:43:14;16.70;92.10
59973;DHT22;55298;-36.624;-64.282;2023-03-21T09:45:57;16.60;92.10
59973;DHT22;55298;-36.624;-64.282;2023-03-21T09:48:40;16.60;92.20
59973;DHT22;55298;-36.624;-64.282;2023-03-21T09:51:14;16.50;92.30
59973;DHT22;55298;-36.624;-64.282;2023-03-21T09:53:46;16.50;92.30
59973;DHT22;55298;-36.624;-64.282;2023-03-21T09:56:16;16.50;92.20
59973;DHT22;55298;-36.624;-64.282;2023-03-21T09:58:48;16.50;92.30
59973;DHT22;55298;-36.624;-64.282;2023-03-21T10:01:23;16.40;92.50
59973;DHT22;55298;-36.624;-64.282;2023-03-21T10:04:00;16.40;92.70
59973;DHT22;55298;-36.624;-64.282;2023-03-21T10:06:29;16.50;92.70
59973;DHT22;55298;-36.624;-64.282;2023-03-21T10:09:05;16.40;92.70
59973;DHT22;55298;-36.624;-64.282;2023-03-21T10:11:45;16.40;92.90
59973;DHT22;55298;-36.624;-64.282;2023-03-21T10:14:27;16.40;92.70
59973;DHT22;55298;-36.624;-64.282;2023-03-21T10:17:04;16.40;92.90
59973;DHT22;55298;-36.624;-64.282;2023-03-21T10:19:39;16.30;93.30
59973;DHT22;55298;-36.624;-64.282;2023-03-21T10:22:12;16.30;93.60
59973;DHT22;55298;-36.624;-64.282;2023-03-21T10:24:40;16.30;93.70
59973;DHT22;55298;-36.624;-64.282;2023-03-21T10:27:12;16.20;93.90
59973;DHT22;55298;-36.624;-64.282;2023-03-21T10:29:42;16.30;94.00
59973;DHT22;55298;-36.624;-64.282;2023-03-21T10:32:15;16.30;93.90
59973;DHT22;55298;-36.624;-64.282;2023-03-21T10:34:49;16.30;94.30
59973;DHT22;55298;-36.624;-64.282;2023-03-21T10:37:20;16.30;94.50
59973;DHT22;55298;-36.624;-64.282;2023-03-21T10:39:51;16.30;94.10
59973;DHT22;55298;-36.624;-64.282;2023-03-21T10:42:23;16.40;94.50
59973;DHT22;55298;-36.624;-64.282;2023-03-21T10:44:54;16.30;94.70
59973;DHT22;55298;-36.624;-64.282;2023-03-21T10:47:27;16.30;94.80
59973;DHT22;55298;-36.624;-64.282;2023-03-21T10:50:07;16.30;95.00
59973;DHT22;55298;-36.624;-64.282;2023-03-21T10:52:42;16.40;95.00
59973;DHT22;55298;-36.624;-64.282;2023-03-21T10:55:32;16.40;95.00
59973;DHT22;55298;-36.624;-64.282;2023-03-21T10:58:12;16.50;94.70
59973;DHT22;55298;-36.624;-64.282;2023-03-21T11:00:45;16.60;94.70
59973;DHT22;55298;-36.624;-64.282;2023-03-21T11:03:23;16.80;94.50
59973;DHT22;55298;-36.624;-64.282;2023-03-21T11:06:07;17.50;93.30
59973;DHT22;55298;-36.624;-64.282;2023-03-21T11:08:50;18.50;91.10
59973;DHT22;55298;-36.624;-64.282;2023-03-21T11:11:36;19.40;87.30
59973;DHT22;55298;-36.624;-64.282;2023-03-21T11:14:10;20.10;83.20
59973;DHT22;55298;-36.624;-64.282;2023-03-21T11:16:46;20.80;78.90
59973;DHT22;55298;-36.624;-64.282;2023-03-21T11:19:34;21.40;76.10
59973;DHT22;55298;-36.624;-64.282;2023-03-21T11:22:06;21.80;71.60
59973;DHT22;55298;-36.624;-64.282;2023-03-21T11:24:35;22.20;69.50
59973;DHT22;55298;-36.624;-64.282;2023-03-21T11:27:07;22.60;68.20
59973;DHT22;55298;-36.624;-64.282;2023-03-21T11:29:44;23.00;65.90
59973;DHT22;55298;-36.624;-64.282;2023-03-21T11:37:58;24.40;59.40
59973;DHT22;55298;-36.624;-64.282;2023-03-21T11:40:32;24.80;58.00
59973;DHT22;55298;-36.624;-64.282;2023-03-21T11:43:25;25.10;57.10
59973;DHT22;55298;-36.624;-64.282;2023-03-21T11:46:04;25.20;55.30
59973;DHT22;55298;-36.624;-64.282;2023-03-21T11:48:41;25.40;55.30
59973;DHT22;55298;-36.624;-64.282;2023-03-21T11:51:35;25.70;55.70
59973;DHT22;55298;-36.624;-64.282;2023-03-21T11:54:27;26.20;53.60
59973;DHT22;55298;-36.624;-64.282;2023-03-21T11:57:19;26.40;52.80
59973;DHT22;55298;-36.624;-64.282;2023-03-21T12:05:55;27.30;51.10
59973;DHT22;55298;-36.624;-64.282;2023-03-21T12:08:41;27.60;50.10
59973;DHT22;55298;-36.624;-64.282;2023-03-21T12:14:16;27.70;49.50
59973;DHT22;55298;-36.624;-64.282;2023-03-21T12:17:05;27.80;49.50
59973;DHT22;55298;-36.624;-64.282;2023-03-21T12:22:32;28.50;49.50
59973;DHT22;55298;-36.624;-64.282;2023-03-21T12:25:21;29.00;47.40
59973;DHT22;55298;-36.624;-64.282;2023-03-21T12:36:48;29.40;47.10
59973;DHT22;55298;-36.624;-64.282;2023-03-21T12:39:31;29.90;46.00
59973;DHT22;55298;-36.624;-64.282;2023-03-21T12:42:25;30.10;44.50
59973;DHT22;55298;-36.624;-64.282;2023-03-21T12:45:03;29.70;44.20
59973;DHT22;55298;-36.624;-64.282;2023-03-21T12:47:34;29.60;45.50
59973;DHT22;55298;-36.624;-64.282;2023-03-21T12:50:16;29.70;44.70
59973;DHT22;55298;-36.624;-64.282;2023-03-21T12:52:53;29.40;45.20
59973;DHT22;55298;-36.624;-64.282;2023-03-21T12:55:28;29.40;45.90
59973;DHT22;55298;-36.624;-64.282;2023-03-21T12:58:06;29.70;46.60
59973;DHT22;55298;-36.624;-64.282;2023-03-21T13:00:47;30.10;45.70
59973;DHT22;55298;-36.624;-64.282;2023-03-21T13:03:30;30.10;45.20
59973;DHT22;55298;-36.624;-64.282;2023-03-21T13:06:05;30.10;45.80
59973;DHT22;55298;-36.624;-64.282;2023-03-21T13:08:51;30.30;45.70
59973;DHT22;55298;-36.624;-64.282;2023-03-21T13:11:28;30.40;45.70
59973;DHT22;55298;-36.624;-64.282;2023-03-21T13:14:04;30.40;45.10
59973;DHT22;55298;-36.624;-64.282;2023-03-21T13:16:48;30.20;45.60
59973;DHT22;55298;-36.624;-64.282;2023-03-21T13:25:05;30.30;45.40
59973;DHT22;55298;-36.624;-64.282;2023-03-21T13:27:36;30.20;45.50
59973;DHT22;55298;-36.624;-64.282;2023-03-21T13:30:18;30.40;45.80
59973;DHT22;55298;-36.624;-64.282;2023-03-21T13:32:49;30.20;45.80
59973;DHT22;55298;-36.624;-64.282;2023-03-21T13:35:33;30.20;47.10
59973;DHT22;55298;-36.624;-64.282;2023-03-21T13:40:48;31.10;45.80
59973;DHT22;55298;-36.624;-64.282;2023-03-21T13:43:31;31.00;44.90
59973;DHT22;55298;-36.624;-64.282;2023-03-21T13:46:12;30.90;45.40
59973;DHT22;55298;-36.624;-64.282;2023-03-21T13:48:56;30.80;45.30
59973;DHT22;55298;-36.624;-64.282;2023-03-21T13:51:46;30.80;45.50
59973;DHT22;55298;-36.624;-64.282;2023-03-21T13:54:26;30.60;45.40
59973;DHT22;55298;-36.624;-64.282;2023-03-21T13:56:59;30.10;46.80
59973;DHT22;55298;-36.624;-64.282;2023-03-21T13:59:39;29.90;47.70
59973;DHT22;55298;-36.624;-64.282;2023-03-21T14:04:57;30.40;46.80
59973;DHT22;55298;-36.624;-64.282;2023-03-21T14:07:30;30.50;46.30
59973;DHT22;55298;-36.624;-64.282;2023-03-21T14:10:03;30.80;46.60
59973;DHT22;55298;-36.624;-64.282;2023-03-21T14:12:38;30.80;45.60
59973;DHT22;55298;-36.624;-64.282;2023-03-21T14:18:00;30.60;41.10
59973;DHT22;55298;-36.624;-64.282;2023-03-21T14:20:38;30.50;41.60
59973;DHT22;55298;-36.624;-64.282;2023-03-21T14:26:35;30.50;42.10
59973;DHT22;55298;-36.624;-64.282;2023-03-21T14:29:06;30.50;39.30
59973;DHT22;55298;-36.624;-64.282;2023-03-21T14:31:38;30.20;40.30
59973;DHT22;55298;-36.624;-64.282;2023-03-21T14:34:07;30.20;40.90
59973;DHT22;55298;-36.624;-64.282;2023-03-21T14:36:40;30.00;37.60
59973;DHT22;55298;-36.624;-64.282;2023-03-21T14:39:20;29.60;37.90
59973;DHT22;55298;-36.624;-64.282;2023-03-21T14:41:52;29.20;39.50
59973;DHT22;55298;-36.624;-64.282;2023-03-21T14:44:36;29.20;40.50
59973;DHT22;55298;-36.624;-64.282;2023-03-21T14:47:21;29.40;40.10
59973;DHT22;55298;-36.624;-64.282;2023-03-21T14:49:49;29.70;40.80
59973;DHT22;55298;-36.624;-64.282;2023-03-21T14:52:24;30.10;39.60
59973;DHT22;55298;-36.624;-64.282;2023-03-21T14:54:54;30.50;38.50
59973;DHT22;55298;-36.624;-64.282;2023-03-21T14:57:26;30.30;34.70
59973;DHT22;55298;-36.624;-64.282;2023-03-21T14:59:59;29.80;33.40
59973;DHT22;55298;-36.624;-64.282;2023-03-21T15:02:33;29.40;34.90
59973;DHT22;55298;-36.624;-64.282;2023-03-21T15:05:18;29.50;34.20
59973;DHT22;55298;-36.624;-64.282;2023-03-21T15:07:56;29.50;35.10
59973;DHT22;55298;-36.624;-64.282;2023-03-21T15:10:27;29.60;35.20
59973;DHT22;55298;-36.624;-64.282;2023-03-21T15:12:58;29.60;36.00
59973;DHT22;55298;-36.624;-64.282;2023-03-21T15:15:28;29.80;37.00
59973;DHT22;55298;-36.624;-64.282;2023-03-21T15:18:02;29.90;37.00
59973;DHT22;55298;-36.624;-64.282;2023-03-21T15:20:33;30.00;37.90
59973;DHT22;55298;-36.624;-64.282;2023-03-21T15:25:42;29.80;36.50
59973;DHT22;55298;-36.624;-64.282;2023-03-21T15:28:13;29.50;36.10
59973;DHT22;55298;-36.624;-64.282;2023-03-21T15:30:48;29.30;36.50
59973;DHT22;55298;-36.624;-64.282;2023-03-21T15:33:18;29.20;35.60
59973;DHT22;55298;-36.624;-64.282;2023-03-21T15:35:58;29.20;33.90
59973;DHT22;55298;-36.624;-64.282;2023-03-21T15:38:36;29.10;32.70
59973;DHT22;55298;-36.624;-64.282;2023-03-21T15:44:13;29.20;31.60
59973;DHT22;55298;-36.624;-64.282;2023-03-21T15:46:49;29.10;32.90
59973;DHT22;55298;-36.624;-64.282;2023-03-21T15:52:04;29.10;35.10
59973;DHT22;55298;-36.624;-64.282;2023-03-21T15:54:46;29.10;32.40
59973;DHT22;55298;-36.624;-64.282;2023-03-21T15:57:22;28.40;30.10
59973;DHT22;55298;-36.624;-64.282;2023-03-21T15:59:55;27.70;31.90
59973;DHT22;55298;-36.624;-64.282;2023-03-21T16:02:29;27.10;33.60
59973;DHT22;55298;-36.624;-64.282;2023-03-21T16:07:45;26.50;34.70
59973;DHT22;55298;-36.624;-64.282;2023-03-21T16:10:30;26.40;34.50
59973;DHT22;55298;-36.624;-64.282;2023-03-21T16:13:03;26.40;35.20
59973;DHT22;55298;-36.624;-64.282;2023-03-21T16:15:35;26.50;35.40
59973;DHT22;55298;-36.624;-64.282;2023-03-21T16:18:05;26.80;35.20
59973;DHT22;55298;-36.624;-64.282;2023-03-21T16:20:42;27.00;34.90
59973;DHT22;55298;-36.624;-64.282;2023-03-21T16:23:14;26.90;35.20
59973;DHT22;55298;-36.624;-64.282;2023-03-21T16:25:44;27.00;36.20
59973;DHT22;55298;-36.624;-64.282;2023-03-21T16:28:15;27.00;34.80
59973;DHT22;55298;-36.624;-64.282;2023-03-21T16:30:44;26.90;32.50
59973;DHT22;55298;-36.624;-64.282;2023-03-21T16:33:12;26.80;33.10
59973;DHT22;55298;-36.624;-64.282;2023-03-21T16:35:41;26.60;34.20